createdAt,value
2023-08-15T00:00:37.518Z,62.69
2023-08-15T00:01:40.977Z,63.68
2023-08-15T00:02:44.203Z,63.52
2023-08-15T00:03:48.085Z,63.81
2023-08-15T00:04:51.199Z,62.92
2023-08-15T00:05:54.411Z,62.52
2023-08-15T00:06:58.154Z,62.75
2023-08-15T00:08:01.124Z,63.33
2023-08-15T00:09:04.133Z,63.56
2023-08-15T00:10:07.596Z,63.69
2023-08-15T00:11:10.798Z,63.33
2023-08-15T00:12:13.701Z,63.08
2023-08-15T00:13:16.751Z,63.60
2023-08-15T00:14:19.903Z,62.82
2023-08-15T00:15:23.005Z,62.71
2023-08-15T00:16:26.177Z,62.30
2023-08-15T00:17:29.160Z,62.99
2023-08-15T00:18:32.049Z,63.28
2023-08-15T00:19:34.888Z,62.85
2023-08-15T00:20:37.838Z,63.16
2023-08-15T00:21:40.841Z,63.41
2023-08-15T00:22:43.988Z,63.36
2023-08-15T00:23:47.112Z,62.96
2023-08-15T00:24:50.105Z,63.42
2023-08-15T00:25:53.085Z,62.29
2023-08-15T00:26:56.043Z,62.49
2023-08-15T00:27:59.030Z,62.11
2023-08-15T00:29:02.073Z,62.17
2023-08-15T00:30:06.017Z,62.23
2023-08-15T00:31:11.968Z,61.58
2023-08-15T00:32:14.968Z,62.17
2023-08-15T00:33:17.946Z,61.81
2023-08-15T00:34:20.900Z,62.51
2023-08-15T00:35:23.924Z,62.15
2023-08-15T00:36:26.892Z,62.92
2023-08-15T00:37:29.899Z,62.51
2023-08-15T00:38:32.866Z,62.83
2023-08-15T00:39:35.764Z,62.58
2023-08-15T00:40:42.077Z,62.60
2023-08-15T00:41:44.974Z,63.17
2023-08-15T00:42:48.097Z,62.77
2023-08-15T00:43:51.177Z,62.29
2023-08-15T00:44:54.156Z,60.97
2023-08-15T00:45:57.525Z,61.57
2023-08-15T00:47:00.706Z,62.24
2023-08-15T00:48:03.768Z,62.68
2023-08-15T00:49:07.962Z,62.26
2023-08-15T00:50:11.288Z,61.70
2023-08-15T00:51:14.814Z,62.72
2023-08-15T00:52:18.780Z,63.12
2023-08-15T00:53:21.880Z,62.62
2023-08-15T00:54:25.064Z,62.31
2023-08-15T00:55:29.237Z,62.93
2023-08-15T00:56:32.443Z,64.96
2023-08-15T00:57:35.482Z,64.84
2023-08-15T00:58:38.615Z,64.75
2023-08-15T00:59:44.208Z,63.20
2023-08-15T01:00:47.256Z,62.93
2023-08-15T01:01:51.055Z,61.87
2023-08-15T01:02:54.482Z,62.07
2023-08-15T01:03:58.290Z,62.27
2023-08-15T01:05:01.424Z,62.43
2023-08-15T01:06:04.649Z,62.28
2023-08-15T01:07:07.592Z,61.46
2023-08-15T01:08:10.863Z,61.21
2023-08-15T01:09:13.790Z,61.38
2023-08-15T01:10:16.976Z,62.02
2023-08-15T01:11:19.945Z,61.11
2023-08-15T01:12:41.603Z,61.25
2023-08-15T01:13:54.777Z,61.79
2023-08-15T01:15:04.900Z,61.94
2023-08-15T01:16:13.952Z,62.91
2023-08-15T01:17:22.370Z,63.15
2023-08-15T01:18:38.834Z,63.96
2023-08-15T01:19:49.365Z,63.93
2023-08-15T01:20:53.793Z,63.81
2023-08-15T01:21:59.497Z,63.13
2023-08-15T01:23:07.801Z,64.15
2023-08-15T01:24:11.318Z,64.89
2023-08-15T01:25:14.329Z,65.67
2023-08-15T01:26:17.274Z,65.92
2023-08-15T01:27:20.626Z,66.23
2023-08-15T01:28:23.937Z,66.47
2023-08-15T01:29:26.791Z,66.96
2023-08-15T01:30:29.655Z,67.20
2023-08-15T01:31:36.022Z,66.78
2023-08-15T01:33:04.481Z,67.29
2023-08-15T01:34:26.716Z,67.84
2023-08-15T01:35:39.294Z,68.51
2023-08-15T01:36:49.285Z,68.33
2023-08-15T01:38:17.972Z,68.82
2023-08-15T01:39:30.377Z,69.30
2023-08-15T01:40:36.945Z,69.29
2023-08-15T01:41:42.461Z,69.00
2023-08-15T01:42:47.130Z,69.50
2023-08-15T01:43:51.470Z,69.79
2023-08-15T01:44:55.530Z,69.63
2023-08-15T01:45:58.977Z,69.29
2023-08-15T01:47:02.264Z,69.71
2023-08-15T01:48:05.551Z,69.83
2023-08-15T01:49:08.562Z,69.89
2023-08-15T01:50:11.541Z,70.37
2023-08-15T01:51:14.934Z,70.66
2023-08-15T01:52:17.835Z,69.92
2023-08-15T01:53:21.184Z,70.19
2023-08-15T01:54:24.278Z,70.24
2023-08-15T01:55:27.361Z,70.71
2023-08-15T01:56:30.276Z,70.82
2023-08-15T01:57:33.152Z,71.04
2023-08-15T01:58:36.037Z,70.81
2023-08-15T01:59:38.988Z,71.25
2023-08-15T02:00:42.240Z,71.20
2023-08-15T02:01:45.334Z,71.10
2023-08-15T02:02:48.323Z,71.95
2023-08-15T02:03:51.560Z,71.63
2023-08-15T02:04:54.677Z,71.08
2023-08-15T02:05:57.571Z,71.31
2023-08-15T02:07:00.490Z,71.37
2023-08-15T02:08:03.580Z,71.12
2023-08-15T02:09:06.493Z,71.69
2023-08-15T02:10:09.923Z,71.24
2023-08-15T02:11:14.154Z,71.16
2023-08-15T02:12:17.468Z,70.39
2023-08-15T02:13:20.517Z,70.38
2023-08-15T02:14:23.493Z,70.20
2023-08-15T02:15:26.771Z,71.19
2023-08-15T02:16:29.941Z,71.00
2023-08-15T02:17:33.039Z,71.19
2023-08-15T02:18:36.010Z,71.42
2023-08-15T02:19:38.854Z,71.08
2023-08-15T02:20:41.757Z,71.59
2023-08-15T02:21:44.646Z,71.83
2023-08-15T02:22:47.503Z,71.63
2023-08-15T02:23:50.445Z,71.81
2023-08-15T02:24:53.582Z,72.11
2023-08-15T02:25:56.508Z,71.43
2023-08-15T02:26:59.771Z,71.47
2023-08-15T02:28:02.705Z,71.48
2023-08-15T02:29:05.757Z,72.24
2023-08-15T02:30:09.727Z,71.20
2023-08-15T02:31:13.032Z,71.49
2023-08-15T02:32:16.136Z,70.35
2023-08-15T02:33:19.877Z,71.32
2023-08-15T02:34:22.825Z,71.35
2023-08-15T02:35:25.831Z,70.71
2023-08-15T02:36:28.855Z,70.53
2023-08-15T02:37:31.949Z,70.89
2023-08-15T02:38:36.402Z,70.67
2023-08-15T02:39:39.400Z,70.16
2023-08-15T02:40:44.052Z,71.03
2023-08-15T02:41:46.948Z,71.18
2023-08-15T02:42:49.892Z,70.09
2023-08-15T02:43:52.819Z,68.79
2023-08-15T02:44:55.889Z,69.15
2023-08-15T02:45:58.910Z,69.55
2023-08-15T02:47:02.010Z,69.91
2023-08-15T02:48:05.091Z,69.01
2023-08-15T02:49:08.116Z,70.05
2023-08-15T02:50:11.510Z,70.42
2023-08-15T02:51:14.476Z,69.55
2023-08-15T02:52:17.426Z,69.94
2023-08-15T02:53:20.428Z,68.87
2023-08-15T02:54:23.337Z,69.97
2023-08-15T02:55:26.437Z,69.75
2023-08-15T02:56:29.372Z,70.42
2023-08-15T02:57:32.497Z,70.65
2023-08-15T02:58:35.327Z,70.41
2023-08-15T02:59:38.382Z,68.64
2023-08-15T03:00:41.248Z,68.81
2023-08-15T03:01:44.177Z,70.09
2023-08-15T03:02:47.095Z,69.79
2023-08-15T03:03:49.922Z,68.33
2023-08-15T03:04:52.858Z,69.15
2023-08-15T03:05:59.958Z,69.58
2023-08-15T03:07:02.926Z,68.69
2023-08-15T03:08:06.116Z,69.42
2023-08-15T03:09:09.135Z,70.49
2023-08-15T03:10:12.168Z,69.03
2023-08-15T03:11:15.243Z,68.38
2023-08-15T03:12:18.334Z,67.24
2023-08-15T03:13:21.245Z,66.70
2023-08-15T03:14:24.252Z,67.27
2023-08-15T03:15:27.474Z,66.28
2023-08-15T03:16:30.503Z,66.49
2023-08-15T03:17:36.563Z,67.39
2023-08-15T03:18:39.501Z,66.47
2023-08-15T03:19:43.324Z,67.15
2023-08-15T03:20:55.347Z,66.34
2023-08-15T03:21:58.160Z,65.87
2023-08-15T03:23:01.121Z,65.73
2023-08-15T03:24:04.176Z,66.33
2023-08-15T03:25:07.220Z,67.09
2023-08-15T03:26:10.193Z,66.26
2023-08-15T03:27:13.253Z,66.36
2023-08-15T03:28:16.199Z,66.62
2023-08-15T03:29:19.012Z,66.74
2023-08-15T03:30:21.988Z,67.95
2023-08-15T03:31:24.962Z,66.85
2023-08-15T03:32:27.986Z,66.33
2023-08-15T03:33:30.808Z,66.90
2023-08-15T03:34:33.670Z,67.95
2023-08-15T03:35:36.581Z,67.44
2023-08-15T03:36:39.480Z,67.03
2023-08-15T03:37:42.522Z,67.34
2023-08-15T03:38:45.468Z,67.58
2023-08-15T03:39:48.313Z,67.03
2023-08-15T03:41:03.800Z,67.02
2023-08-15T03:42:06.766Z,66.97
2023-08-15T03:43:09.618Z,67.16
2023-08-15T03:44:12.582Z,67.34
2023-08-15T03:45:15.476Z,66.59
2023-08-15T03:46:20.396Z,67.36
2023-08-15T03:47:23.959Z,67.54
2023-08-15T03:48:27.075Z,67.53
2023-08-15T03:49:29.935Z,67.33
2023-08-15T03:50:37.021Z,68.17
2023-08-15T03:51:46.885Z,68.34
2023-08-15T03:52:50.951Z,67.30
2023-08-15T03:53:53.886Z,67.92
2023-08-15T03:54:56.820Z,67.78
2023-08-15T03:55:59.753Z,68.07
2023-08-15T03:57:02.679Z,67.86
2023-08-15T03:58:05.512Z,68.66
2023-08-15T03:59:08.569Z,68.44
2023-08-15T04:00:12.553Z,67.33
2023-08-15T04:01:15.499Z,67.74
2023-08-15T04:02:18.391Z,67.93
2023-08-15T04:03:21.355Z,68.35
2023-08-15T04:04:24.273Z,68.35
2023-08-15T04:05:27.564Z,67.96
2023-08-15T04:06:30.335Z,67.96
2023-08-15T04:07:33.294Z,67.70
2023-08-15T04:08:36.438Z,67.79
2023-08-15T04:09:39.643Z,67.75
2023-08-15T04:10:44.999Z,68.62
2023-08-15T04:11:47.872Z,68.54
2023-08-15T04:12:50.671Z,68.79
2023-08-15T04:13:54.107Z,68.43
2023-08-15T04:14:56.971Z,69.29
2023-08-15T04:15:59.849Z,68.80
2023-08-15T04:17:02.798Z,68.76
2023-08-15T04:18:10.167Z,68.96
2023-08-15T04:19:12.994Z,69.54
2023-08-15T04:20:15.803Z,69.66
2023-08-15T04:21:18.749Z,70.41
2023-08-15T04:22:21.477Z,70.26
2023-08-15T04:23:24.465Z,70.37
2023-08-15T04:24:27.319Z,69.93
2023-08-15T04:25:31.517Z,69.64
2023-08-15T04:26:34.917Z,70.60
2023-08-15T04:27:38.559Z,70.57
2023-08-15T04:28:41.488Z,70.64
2023-08-15T04:29:44.788Z,71.08
2023-08-15T04:30:47.670Z,71.17
2023-08-15T04:31:50.562Z,71.87
2023-08-15T04:32:53.536Z,72.19
2023-08-15T04:33:56.412Z,71.97
2023-08-15T04:34:59.353Z,71.76
2023-08-15T04:36:02.383Z,71.69
2023-08-15T04:37:05.428Z,71.70
2023-08-15T04:38:08.391Z,71.76
2023-08-15T04:39:11.513Z,71.24
2023-08-15T04:40:14.950Z,72.08
2023-08-15T04:41:18.581Z,72.51
2023-08-15T04:42:21.793Z,72.29
2023-08-15T04:43:24.650Z,72.69
2023-08-15T04:44:27.544Z,72.61
2023-08-15T04:45:30.744Z,72.26
2023-08-15T04:46:33.645Z,71.87
2023-08-15T04:47:36.763Z,71.88
2023-08-15T04:48:39.731Z,72.39
2023-08-15T04:49:42.709Z,71.57
2023-08-15T04:50:45.590Z,71.93
2023-08-15T04:51:48.445Z,71.95
2023-08-15T04:52:51.539Z,71.98
2023-08-15T04:53:54.324Z,72.05
2023-08-15T04:54:57.333Z,71.35
2023-08-15T04:56:00.145Z,71.21
2023-08-15T04:57:03.511Z,71.84
2023-08-15T04:58:06.412Z,71.36
2023-08-15T04:59:09.320Z,71.79
2023-08-15T05:00:13.234Z,71.60
2023-08-15T05:01:16.369Z,71.61
2023-08-15T05:02:19.529Z,71.37
2023-08-15T05:03:22.403Z,71.37
2023-08-15T05:04:25.205Z,71.77
2023-08-15T05:05:28.357Z,71.48
2023-08-15T05:06:31.609Z,72.10
2023-08-15T05:07:34.760Z,71.41
2023-08-15T05:08:37.830Z,71.75
2023-08-15T05:09:41.426Z,71.80
2023-08-15T05:10:44.500Z,71.86
2023-08-15T05:11:47.492Z,72.13
2023-08-15T05:12:50.526Z,71.68
2023-08-15T05:13:53.430Z,71.64
2023-08-15T05:14:56.246Z,71.79
2023-08-15T05:15:59.150Z,71.91
2023-08-15T05:17:02.142Z,71.77
2023-08-15T05:18:05.598Z,72.36
2023-08-15T05:19:08.562Z,72.12
2023-08-15T05:20:11.912Z,71.87
2023-08-15T05:21:14.877Z,71.59
2023-08-15T05:22:17.738Z,71.15
2023-08-15T05:23:21.096Z,70.72
2023-08-15T05:24:26.599Z,70.25
2023-08-15T05:25:29.453Z,71.24
2023-08-15T05:26:32.333Z,70.66
2023-08-15T05:27:35.409Z,70.40
2023-08-15T05:28:38.336Z,70.54
2023-08-15T05:29:45.187Z,70.05
2023-08-15T05:30:48.859Z,69.83
2023-08-15T05:31:52.841Z,70.91
2023-08-15T05:32:55.946Z,69.58
2023-08-15T05:33:58.911Z,70.10
2023-08-15T05:35:02.175Z,69.54
2023-08-15T05:36:05.152Z,68.98
2023-08-15T05:37:08.021Z,70.02
2023-08-15T05:38:10.937Z,69.03
2023-08-15T05:39:13.792Z,68.61
2023-08-15T05:40:17.294Z,67.63
2023-08-15T05:41:20.168Z,67.98
2023-08-15T05:42:22.983Z,67.12
2023-08-15T05:43:25.922Z,66.87
2023-08-15T05:44:28.906Z,65.82
2023-08-15T05:45:32.209Z,65.94
2023-08-15T05:46:35.253Z,66.12
2023-08-15T05:47:38.403Z,66.17
2023-08-15T05:48:41.336Z,66.72
2023-08-15T05:49:44.296Z,65.34
2023-08-15T05:50:47.294Z,64.98
2023-08-15T05:51:50.207Z,64.60
2023-08-15T05:52:53.069Z,65.72
2023-08-15T05:53:55.880Z,65.08
2023-08-15T05:54:58.919Z,64.29
2023-08-15T05:56:01.833Z,64.74
2023-08-15T05:57:05.615Z,63.21
2023-08-15T05:58:08.550Z,62.78
2023-08-15T05:59:11.445Z,62.25
2023-08-15T06:00:14.671Z,62.05
2023-08-15T06:01:19.511Z,62.11
2023-08-15T06:02:22.680Z,62.10
2023-08-15T06:03:45.200Z,62.21
2023-08-15T06:04:48.469Z,62.24
2023-08-15T06:05:51.412Z,61.91
2023-08-15T06:06:54.690Z,62.52
2023-08-15T06:07:57.582Z,61.52
2023-08-15T06:09:00.428Z,62.24
2023-08-15T06:10:03.505Z,61.96
2023-08-15T06:11:07.334Z,61.43
2023-08-15T06:12:10.624Z,61.99
2023-08-15T06:13:13.512Z,61.63
2023-08-15T06:14:16.474Z,61.19
2023-08-15T06:15:19.484Z,60.00
2023-08-15T06:16:22.402Z,60.87
2023-08-15T06:17:25.659Z,60.94
2023-08-15T06:18:28.632Z,61.46
2023-08-15T06:19:31.791Z,60.46
2023-08-15T06:20:35.998Z,60.68
2023-08-15T06:21:39.045Z,61.51
2023-08-15T06:22:42.214Z,61.72
2023-08-15T06:23:45.089Z,59.59
2023-08-15T06:24:48.021Z,59.60
2023-08-15T06:25:50.986Z,60.07
2023-08-15T06:26:53.934Z,58.52
2023-08-15T06:27:56.970Z,59.18
2023-08-15T06:28:59.900Z,58.68
2023-08-15T06:30:02.933Z,58.34
2023-08-15T06:31:05.798Z,58.89
2023-08-15T06:32:10.542Z,58.10
2023-08-15T06:33:13.505Z,58.24
2023-08-15T06:34:16.321Z,57.55
2023-08-15T06:35:19.276Z,57.52
2023-08-15T06:36:23.389Z,57.07
2023-08-15T06:37:26.480Z,56.00
2023-08-15T06:38:29.327Z,56.30
2023-08-15T06:39:32.349Z,56.48
2023-08-15T06:40:35.262Z,57.08
2023-08-15T06:41:38.278Z,58.29
2023-08-15T06:42:41.149Z,56.26
2023-08-15T06:43:45.592Z,56.35
2023-08-15T06:44:48.469Z,56.11
2023-08-15T06:45:51.392Z,56.60
2023-08-15T06:46:54.409Z,56.21
2023-08-15T06:47:57.463Z,57.04
2023-08-15T06:49:00.500Z,57.41
2023-08-15T06:50:03.711Z,58.09
2023-08-15T06:51:06.765Z,56.96
2023-08-15T06:52:09.703Z,56.06
2023-08-15T06:53:12.644Z,54.97
2023-08-15T06:54:15.617Z,54.72
2023-08-15T06:55:18.547Z,55.23
2023-08-15T06:56:21.789Z,55.42
2023-08-15T06:57:24.658Z,55.01
2023-08-15T06:58:27.911Z,56.09
2023-08-15T06:59:36.602Z,55.25
2023-08-15T07:00:39.745Z,55.56
2023-08-15T07:01:42.592Z,55.50
2023-08-15T07:02:45.479Z,55.78
2023-08-15T07:03:48.678Z,55.47
2023-08-15T07:04:52.250Z,55.40
2023-08-15T07:05:55.079Z,55.77
2023-08-15T07:06:58.698Z,56.65
2023-08-15T07:08:01.596Z,53.73
2023-08-15T07:09:08.069Z,53.74
2023-08-15T07:10:11.853Z,54.23
2023-08-15T07:11:14.686Z,53.05
2023-08-15T07:12:19.862Z,53.73
2023-08-15T07:13:23.145Z,54.18
2023-08-15T07:14:26.277Z,54.87
2023-08-15T07:15:29.629Z,53.50
2023-08-15T07:16:32.742Z,53.41
2023-08-15T07:17:35.785Z,53.59
2023-08-15T07:18:38.888Z,53.49
2023-08-15T07:19:41.814Z,53.83
2023-08-15T07:20:46.283Z,53.15
2023-08-15T07:21:49.217Z,53.44
2023-08-15T07:22:52.204Z,53.24
2023-08-15T07:23:55.093Z,51.72
2023-08-15T07:24:58.119Z,51.44
2023-08-15T07:26:01.056Z,51.66
2023-08-15T07:27:04.080Z,53.42
2023-08-15T07:28:07.394Z,51.85
2023-08-15T07:29:10.318Z,52.21
2023-08-15T07:30:14.005Z,52.46
2023-08-15T07:31:16.954Z,54.38
2023-08-15T07:32:20.093Z,51.57
2023-08-15T07:33:24.143Z,51.65
2023-08-15T07:34:27.146Z,51.50
2023-08-15T07:35:30.240Z,51.54
2023-08-15T07:36:33.196Z,51.15
2023-08-15T07:37:35.997Z,50.88
2023-08-15T07:38:38.940Z,51.10
2023-08-15T07:39:41.792Z,50.20
2023-08-15T07:40:45.390Z,49.72
2023-08-15T07:41:48.260Z,50.39
2023-08-15T07:42:51.415Z,48.91
2023-08-15T07:43:54.238Z,49.83
2023-08-15T07:44:57.099Z,48.49
2023-08-15T07:46:00.155Z,49.89
2023-08-15T07:47:03.315Z,51.74
2023-08-15T07:48:06.762Z,48.54
2023-08-15T07:49:09.725Z,50.31
2023-08-15T07:50:15.309Z,49.69
2023-08-15T07:51:18.036Z,48.11
2023-08-15T07:52:21.185Z,48.60
2023-08-15T07:53:24.707Z,49.04
2023-08-15T07:54:27.772Z,49.54
2023-08-15T07:55:34.275Z,48.12
2023-08-15T07:56:37.236Z,48.43
2023-08-15T07:57:40.557Z,47.00
2023-08-15T07:58:43.450Z,46.87
2023-08-15T07:59:48.790Z,46.81
2023-08-15T08:00:51.775Z,46.49
2023-08-15T08:01:54.533Z,46.09
2023-08-15T08:03:01.131Z,46.01
2023-08-15T08:04:04.099Z,47.94
2023-08-15T08:05:09.205Z,46.87
2023-08-15T08:06:26.299Z,47.36
2023-08-15T08:07:29.738Z,46.12
2023-08-15T08:08:32.890Z,46.97
2023-08-15T08:09:36.306Z,45.63
2023-08-15T08:10:39.132Z,45.50
2023-08-15T08:11:42.224Z,44.84
2023-08-15T08:12:47.480Z,44.56
2023-08-15T08:13:50.758Z,45.14
2023-08-15T08:14:57.672Z,44.97
2023-08-15T08:16:00.920Z,45.78
2023-08-15T08:17:05.486Z,44.80
2023-08-15T08:18:08.233Z,44.55
2023-08-15T08:19:11.055Z,45.46
2023-08-15T08:20:14.510Z,45.26
2023-08-15T08:21:17.331Z,46.12
2023-08-15T08:22:20.873Z,44.52
2023-08-15T08:23:25.435Z,44.67
2023-08-15T08:24:28.376Z,44.63
2023-08-15T08:25:31.235Z,44.08
2023-08-15T08:26:34.167Z,45.43
2023-08-15T08:27:36.920Z,44.63
2023-08-15T08:28:40.200Z,44.75
2023-08-15T08:29:43.054Z,43.24
2023-08-15T08:30:46.280Z,44.44
2023-08-15T08:31:49.194Z,44.64
2023-08-15T08:32:52.449Z,44.37
2023-08-15T08:33:55.465Z,44.02
2023-08-15T08:34:58.471Z,44.13
2023-08-15T08:36:01.573Z,43.45
2023-08-15T08:37:04.774Z,43.52
2023-08-15T08:38:07.643Z,43.14
2023-08-15T08:39:21.562Z,43.11
2023-08-15T08:40:33.370Z,42.66
2023-08-15T08:41:39.529Z,43.57
2023-08-15T08:42:43.141Z,42.83
2023-08-15T08:43:46.869Z,43.72
2023-08-15T08:44:50.478Z,42.58
2023-08-15T08:45:59.713Z,42.06
2023-08-15T08:47:03.009Z,41.33
2023-08-15T08:48:09.853Z,41.43
2023-08-15T08:49:13.883Z,41.88
2023-08-15T08:50:17.685Z,41.45
2023-08-15T08:51:21.984Z,40.77
2023-08-15T08:52:26.387Z,41.08
2023-08-15T08:53:29.358Z,42.85
2023-08-15T08:54:53.765Z,42.31
2023-08-15T08:55:56.780Z,40.42
2023-08-15T08:57:00.351Z,40.20
2023-08-15T08:58:05.378Z,41.38
2023-08-15T08:59:12.307Z,40.98
2023-08-15T09:00:18.144Z,41.09
2023-08-15T09:01:21.344Z,40.64
2023-08-15T09:02:24.471Z,41.19
2023-08-15T09:03:27.944Z,39.53
2023-08-15T09:04:30.792Z,40.23
2023-08-15T09:05:33.938Z,38.83
2023-08-15T09:06:36.795Z,39.07
2023-08-15T09:07:39.722Z,40.73
2023-08-15T09:08:42.638Z,39.45
2023-08-15T09:09:45.589Z,38.87
2023-08-15T09:10:48.995Z,39.17
2023-08-15T09:11:52.072Z,40.03
2023-08-15T09:13:00.944Z,40.58
2023-08-15T09:14:06.242Z,39.59
2023-08-15T09:15:10.477Z,37.70
2023-08-15T09:16:13.501Z,38.77
2023-08-15T09:17:24.604Z,37.73
2023-08-15T09:18:28.387Z,37.91
2023-08-15T09:19:31.177Z,38.76
2023-08-15T09:20:34.528Z,38.71
2023-08-15T09:21:37.382Z,37.56
2023-08-15T09:22:42.630Z,38.33
2023-08-15T09:23:46.798Z,35.80
2023-08-15T09:24:51.978Z,37.24
2023-08-15T09:25:57.342Z,35.39
2023-08-15T09:27:07.417Z,36.27
2023-08-15T09:28:10.357Z,38.22
2023-08-15T09:29:13.854Z,36.59
2023-08-15T09:30:20.880Z,36.53
2023-08-15T09:31:24.650Z,36.13
2023-08-15T09:32:28.788Z,35.27
2023-08-15T09:33:31.681Z,33.55
2023-08-15T09:34:35.982Z,34.17
2023-08-15T09:35:45.491Z,34.57
2023-08-15T09:36:56.632Z,34.63
2023-08-15T09:37:59.358Z,33.66
2023-08-15T09:39:02.243Z,33.43
2023-08-15T09:40:07.473Z,33.95
2023-08-15T09:41:13.334Z,34.89
2023-08-15T09:42:20.084Z,34.86
2023-08-15T09:43:23.070Z,34.41
2023-08-15T09:44:34.487Z,34.60
2023-08-15T09:45:38.351Z,34.39
2023-08-15T09:46:42.925Z,33.90
2023-08-15T09:47:47.201Z,32.55
2023-08-15T09:48:52.585Z,32.34
2023-08-15T09:49:57.405Z,33.04
2023-08-15T09:51:03.409Z,30.99
2023-08-15T09:52:06.598Z,30.88
2023-08-15T09:53:10.569Z,32.85
2023-08-15T09:54:14.432Z,31.24
2023-08-15T09:55:17.710Z,30.82
2023-08-15T09:56:21.801Z,31.90
2023-08-15T09:57:25.503Z,30.14
2023-08-15T09:58:28.622Z,29.16
2023-08-15T09:59:31.603Z,28.82
2023-08-15T10:00:37.526Z,29.72
2023-08-15T10:01:42.014Z,29.06
2023-08-15T10:02:49.806Z,28.35
2023-08-15T10:03:54.439Z,28.12
2023-08-15T10:05:04.053Z,28.24
2023-08-15T10:06:14.122Z,29.73
2023-08-15T10:07:18.089Z,29.84
2023-08-15T10:08:21.865Z,31.00
2023-08-15T10:09:26.827Z,30.60
2023-08-15T10:10:33.396Z,27.94
2023-08-15T10:11:41.220Z,26.55
2023-08-15T10:12:46.226Z,26.44
2023-08-15T10:13:51.668Z,26.85
2023-08-15T10:14:57.839Z,29.10
2023-08-15T10:16:02.691Z,29.34
2023-08-15T10:17:05.617Z,27.15
2023-08-15T10:18:09.424Z,29.51
2023-08-15T10:19:19.681Z,27.72
2023-08-15T10:20:22.807Z,28.42
2023-08-15T10:21:28.493Z,27.99
2023-08-15T10:22:33.946Z,27.66
2023-08-15T10:23:38.535Z,29.20
2023-08-15T10:24:41.394Z,27.79
2023-08-15T10:25:45.014Z,28.16
2023-08-15T10:26:47.960Z,25.63
2023-08-15T10:27:52.742Z,25.87
2023-08-15T10:28:57.843Z,26.43
2023-08-15T10:30:05.287Z,26.09
2023-08-15T10:31:09.855Z,25.69
2023-08-15T10:32:27.639Z,25.83
2023-08-15T10:33:33.313Z,26.45
2023-08-15T10:34:36.071Z,26.40
2023-08-15T10:35:39.436Z,25.31
2023-08-15T10:36:45.720Z,25.58
2023-08-15T10:37:49.603Z,25.74
2023-08-15T10:38:54.351Z,26.54
2023-08-15T10:40:08.346Z,26.65
2023-08-15T10:41:16.572Z,26.44
2023-08-15T10:42:20.753Z,25.67
2023-08-15T10:43:26.391Z,25.42
2023-08-15T10:44:29.303Z,24.55
2023-08-15T10:45:40.456Z,22.57
2023-08-15T10:46:43.804Z,23.83
2023-08-15T10:47:47.224Z,24.27
2023-08-15T10:49:59.566Z,25.50
2023-08-15T10:51:02.378Z,24.49
2023-08-15T10:52:05.462Z,24.01
2023-08-15T10:53:08.406Z,23.52
2023-08-15T10:54:13.472Z,24.71
2023-08-15T10:55:16.456Z,23.48
2023-08-15T10:56:21.345Z,23.94
2023-08-15T10:57:24.737Z,23.50
2023-08-15T10:58:29.529Z,25.53
2023-08-15T10:59:32.440Z,24.21
2023-08-15T11:00:37.535Z,23.79
2023-08-15T11:01:43.171Z,24.02
2023-08-15T11:02:46.521Z,23.44
2023-08-15T11:03:54.758Z,23.02
2023-08-15T11:04:57.832Z,23.94
2023-08-15T11:06:08.427Z,24.65
2023-08-15T11:07:11.364Z,23.97
2023-08-15T11:08:16.769Z,24.04
2023-08-15T11:09:19.757Z,24.24
2023-08-15T11:10:22.797Z,24.08
2023-08-15T11:11:26.482Z,25.00
2023-08-15T11:12:29.313Z,24.37
2023-08-15T11:13:37.237Z,23.01
2023-08-15T11:14:40.069Z,23.72
2023-08-15T11:15:44.107Z,23.29
2023-08-15T11:16:50.882Z,23.06
2023-08-15T11:17:55.354Z,24.36
2023-08-15T11:18:59.196Z,24.12
2023-08-15T11:20:02.097Z,23.51
2023-08-15T11:21:10.032Z,23.96
2023-08-15T11:22:12.778Z,24.52
2023-08-15T11:23:18.553Z,24.15
2023-08-15T11:24:21.425Z,24.41
2023-08-15T11:25:24.685Z,24.09
2023-08-15T11:26:28.125Z,23.93
2023-08-15T11:27:30.993Z,24.26
2023-08-15T11:28:34.982Z,24.46
2023-08-15T11:29:37.928Z,24.87
2023-08-15T11:30:42.387Z,24.15
2023-08-15T11:31:45.298Z,24.08
2023-08-15T11:32:48.256Z,24.82
2023-08-15T11:33:54.788Z,24.61
2023-08-15T11:34:57.732Z,24.29
2023-08-15T11:36:07.338Z,24.19
2023-08-15T11:37:10.673Z,23.36
2023-08-15T11:38:13.837Z,23.69
2023-08-15T11:39:16.888Z,25.44
2023-08-15T11:40:20.041Z,25.12
2023-08-15T11:41:23.422Z,23.80
2023-08-15T11:42:26.634Z,24.35
2023-08-15T11:43:30.560Z,24.26
2023-08-15T11:44:33.581Z,23.75
2023-08-15T11:45:36.499Z,25.87
2023-08-15T11:46:54.111Z,23.52
2023-08-15T11:48:01.558Z,23.44
2023-08-15T11:49:05.108Z,22.52
2023-08-15T11:50:11.330Z,23.97
2023-08-15T11:51:21.157Z,22.07
2023-08-15T11:52:24.393Z,22.64
2023-08-15T11:53:28.023Z,22.21
2023-08-15T11:54:30.997Z,21.61
2023-08-15T11:55:37.253Z,21.66
2023-08-15T11:56:54.414Z,23.21
2023-08-15T11:57:57.353Z,23.67
2023-08-15T11:59:05.218Z,23.05
2023-08-15T12:00:09.224Z,24.61
2023-08-15T12:01:15.003Z,23.19
2023-08-15T12:02:18.284Z,24.00
2023-08-15T12:03:21.452Z,23.43
2023-08-15T12:04:25.799Z,22.64
2023-08-15T12:05:29.150Z,22.86
2023-08-15T12:06:32.104Z,23.09
2023-08-15T12:07:35.011Z,23.14
2023-08-15T12:08:40.615Z,22.87
2023-08-15T12:09:43.569Z,23.07
2023-08-15T12:10:47.213Z,22.81
2023-08-15T12:11:55.062Z,23.75
2023-08-15T12:12:57.991Z,23.41
2023-08-15T12:14:01.329Z,23.22
2023-08-15T12:15:04.898Z,23.90
2023-08-15T12:16:09.878Z,25.37
2023-08-15T12:17:14.054Z,24.26
2023-08-15T12:18:16.894Z,23.32
2023-08-15T12:19:23.004Z,23.54
2023-08-15T12:20:26.540Z,23.44
2023-08-15T12:21:29.370Z,23.19
2023-08-15T12:22:32.854Z,23.83
2023-08-15T12:23:35.797Z,22.56
2023-08-15T12:24:38.719Z,22.94
2023-08-15T12:25:42.753Z,23.61
2023-08-15T12:26:45.612Z,24.68
2023-08-15T12:27:48.592Z,25.42
2023-08-15T12:28:51.412Z,26.67
2023-08-15T12:30:12.085Z,25.15
2023-08-15T12:31:17.832Z,25.53
2023-08-15T12:32:21.944Z,24.99
2023-08-15T12:34:31.329Z,24.80
2023-08-15T12:35:34.180Z,25.75
2023-08-15T12:36:37.311Z,26.23
2023-08-15T12:37:40.243Z,24.64
2023-08-15T12:38:43.819Z,24.79
2023-08-15T12:39:47.032Z,23.64
2023-08-15T12:40:50.122Z,23.30
2023-08-15T12:41:53.016Z,23.70
2023-08-15T12:42:55.922Z,24.11
2023-08-15T12:43:59.528Z,24.47
2023-08-15T12:45:02.631Z,24.12
2023-08-15T12:46:05.644Z,24.19
2023-08-15T12:47:10.120Z,23.76
2023-08-15T12:48:13.376Z,23.43
2023-08-15T12:49:16.318Z,23.58
2023-08-15T12:50:19.309Z,23.11
2023-08-15T12:51:22.160Z,23.05
2023-08-15T12:52:25.265Z,23.26
2023-08-15T12:53:28.345Z,23.88
2023-08-15T12:54:31.710Z,24.60
2023-08-15T12:55:34.472Z,23.75
2023-08-15T12:56:37.278Z,24.20
2023-08-15T12:57:40.096Z,23.88
2023-08-15T12:58:42.983Z,23.68
2023-08-15T12:59:48.107Z,22.49
2023-08-15T13:00:52.472Z,24.91
2023-08-15T13:01:55.952Z,25.21
2023-08-15T13:02:59.060Z,23.89
2023-08-15T13:04:02.501Z,24.19
2023-08-15T13:05:08.798Z,24.92
2023-08-15T13:06:11.819Z,25.15
2023-08-15T13:07:14.705Z,25.63
2023-08-15T13:08:18.271Z,25.60
2023-08-15T13:09:21.239Z,26.44
2023-08-15T13:10:24.305Z,26.40
2023-08-15T13:11:27.212Z,26.78
2023-08-15T13:12:30.117Z,26.95
2023-08-15T13:13:36.032Z,26.42
2023-08-15T13:14:39.168Z,26.54
2023-08-15T13:15:41.972Z,27.56
2023-08-15T13:16:44.993Z,26.97
2023-08-15T13:17:48.005Z,27.33
2023-08-15T13:18:50.963Z,27.35
2023-08-15T13:19:54.652Z,26.96
2023-08-15T13:20:57.666Z,27.30
2023-08-15T13:22:00.661Z,26.67
2023-08-15T13:23:03.847Z,26.21
2023-08-15T13:24:07.106Z,26.84
2023-08-15T13:25:10.337Z,26.65
2023-08-15T13:26:13.164Z,27.45
2023-08-15T13:27:15.933Z,26.60
2023-08-15T13:28:18.719Z,26.76
2023-08-15T13:29:21.559Z,27.79
2023-08-15T13:30:24.499Z,28.16
2023-08-15T13:31:27.488Z,27.71
2023-08-15T13:32:30.481Z,27.38
2023-08-15T13:33:33.539Z,26.94
2023-08-15T13:34:36.637Z,28.68
2023-08-15T13:35:39.538Z,30.32
2023-08-15T13:36:42.499Z,28.76
2023-08-15T13:37:45.522Z,26.40
2023-08-15T13:38:48.645Z,26.46
2023-08-15T13:39:51.596Z,26.54
2023-08-15T13:40:54.474Z,27.46
2023-08-15T13:41:57.319Z,27.74
2023-08-15T13:43:00.591Z,27.96
2023-08-15T13:44:04.366Z,28.14
2023-08-15T13:45:09.469Z,29.18
2023-08-15T13:46:13.032Z,29.49
2023-08-15T13:47:16.004Z,28.95